Startpagina
METAR-TAF:

METAR-TAF

Vliegvelden :

Luchthaven Caïro Internationaal

Caïro, Egypte

breedte: 30-08N, lengte: 031-24E, hoogte: 64 m

Actueel weer

Dit bericht is 17 minuten geleden gemaakt, om 09:30 UTC
Wind 24 kt uit het westzuidwesten
Temperatuur 15°C
Vochtigheid 41%
Druk 1014 hPa
Zicht: 2000 m
Verspreide wolken op 2500 ft
zand

METAR: HECA 160930Z 24024KT 2000 SA SCT025 15/02 Q1014 NOSIG

Tijdstip: 11:47 (09:47 UTC)

Verwachting

Dit bericht is 4 uur en het 47 minuten geleden gemaakt, om 05:00 UTC
Verwachting geldig van 16 om 06 UTC tot 17 om 12 UTC
Wind 15 kt uit het zuidzuidwesten met uitschieters tot 25 kt
Zicht: 6000 m
Verspreide wolken op 2500 ft
Verspreide wolken op 7000 ft
Tijdelijke
van 16 om 06 UTC tot 16 om 24 UTC
Zicht: 3000 m
lichte regen, zand
Kans 40%
van 16 om 09 UTC tot 16 om 20 UTC
Zicht: 1200 m

TAF: HECA 160500Z 1606/1712 21015G25KT 6000 SCT025 SCT070 TEMPO 1606/1624 3000 -RA SA NSC PROB40 1609/1620 1200

Waarnemingen en weersverwachtingen van meer dan 4000 vliegvelden (METAR en TAF).

De beschikbare stations zijn de gele en rode punten op de kaart.

Ga met uw muis naar het station om de naam te zien.

Klik dan om waarnemingen en weersverwachtingen te zien.

kaart wijzigen: klik op de groene knoppen met een zwart kruis om in te zoomen, op de groene knop met een streepje om uit te zoomen of op de groene pijlen voor aangrenzende kaarten.


METAR-TAF: